Time;durP1;ratioP1;P1;durP2;ratioP2;P2;SDS_P1;SDS_P2;PMS_P1;PMS_P2;Temp;Humidity;BMP_temperature;BMP_pressure;BME280_temperature;BME280_humidity;BME280_pressure;Samples;Min_cycle;Max_cycle;Signal;HPM_P1;HPM_P2
2021/03/17 00:05:11;;;;;;;1.13;0.50;;;4.90;99.90;;;;;;10442944;28;20116;-54
2021/03/17 00:10:38;;;;;;;5.43;0.80;;;4.90;99.90;;;;;;10441528;28;20268;-54
2021/03/17 00:16:00;;;;;;;1.77;0.20;;;5.00;99.90;;;;;;10401306;28;20029;-53
2021/03/17 00:21:21;;;;;;;0.85;0.20;;;5.00;99.90;;;;;;10430159;28;20033;-54
2021/03/17 00:26:42;;;;;;;0.45;0.20;;;5.00;99.90;;;;;;10419185;28;20037;-54
2021/03/17 00:32:03;;;;;;;1.70;0.60;;;5.00;99.90;;;;;;10432167;28;20157;-54
2021/03/17 00:37:24;;;;;;;0.52;0.35;;;5.00;99.90;;;;;;10443514;28;20401;-54
2021/03/17 00:42:45;;;;;;;0.85;0.30;;;5.00;99.90;;;;;;10441498;28;20033;-53
2021/03/17 00:48:07;;;;;;;1.52;0.50;;;5.00;99.90;;;;;;10439846;28;20061;-54
2021/03/17 00:53:29;;;;;;;1.65;0.57;;;5.00;99.90;;;;;;10426316;28;20424;-54
2021/03/17 00:58:50;;;;;;;1.00;0.43;;;4.90;99.90;;;;;;10441292;28;20087;-54
2021/03/17 01:04:11;;;;;;;1.38;0.50;;;4.90;99.90;;;;;;10441533;28;20045;-54
2021/03/17 01:09:31;;;;;;;1.48;0.70;;;4.80;99.90;;;;;;10441353;28;20044;-53
2021/03/17 01:14:52;;;;;;;1.98;0.70;;;4.90;99.90;;;;;;10440636;28;20049;-55
2021/03/17 01:20:15;;;;;;;2.17;0.75;;;4.90;99.90;;;;;;10441448;28;20045;-54
2021/03/17 01:25:38;;;;;;;2.65;0.85;;;4.90;99.90;;;;;;10449566;28;20037;-54
2021/03/17 01:30:59;;;;;;;1.65;0.80;;;4.90;99.90;;;;;;10431962;28;20120;-53
2021/03/17 01:36:20;;;;;;;0.63;0.30;;;4.90;99.90;;;;;;10449028;28;20076;-54
2021/03/17 01:41:41;;;;;;;1.52;0.60;;;4.90;99.90;;;;;;10444397;28;20037;-54
2021/03/17 01:47:02;;;;;;;2.40;0.80;;;4.90;99.90;;;;;;10445936;28;20072;-54
2021/03/17 01:52:24;;;;;;;2.20;0.82;;;4.90;99.90;;;;;;10448253;28;20044;-54
2021/03/17 01:57:46;;;;;;;2.67;1.33;;;5.00;99.90;;;;;;10438493;28;20076;-53
2021/03/17 02:03:08;;;;;;;2.25;0.95;;;5.00;99.90;;;;;;10445623;28;20040;-54
2021/03/17 02:08:32;;;;;;;2.95;1.23;;;5.00;99.90;;;;;;10431049;28;20025;-54
2021/03/17 02:14:14;;;;;;;2.72;0.85;;;5.00;99.90;;;;;;10405134;28;20544;-54
2021/03/17 02:20:16;;;;;;;2.72;1.05;;;5.00;99.90;;;;;;10414875;28;20047;-54
2021/03/17 02:26:23;;;;;;;4.18;1.15;;;5.00;99.90;;;;;;10444291;28;20032;-54
2021/03/17 02:32:12;;;;;;;4.95;1.42;;;5.10;99.90;;;;;;10445518;28;20036;-54
2021/03/17 02:37:38;;;;;;;4.30;1.60;;;5.10;99.90;;;;;;10447098;28;20522;-54
2021/03/17 02:43:11;;;;;;;3.70;1.35;;;5.10;99.90;;;;;;10444690;28;20029;-54
2021/03/17 02:48:41;;;;;;;4.38;1.70;;;5.10;99.90;;;;;;10446133;28;20111;-54
2021/03/17 02:54:05;;;;;;;1.55;0.80;;;5.10;99.90;;;;;;10444096;28;20148;-54
2021/03/17 02:59:28;;;;;;;2.35;1.02;;;5.10;99.90;;;;;;10445396;28;20055;-54
2021/03/17 03:04:54;;;;;;;4.00;1.92;;;5.10;99.90;;;;;;10426516;28;20064;-54
2021/03/17 03:10:17;;;;;;;3.85;1.17;;;5.10;99.90;;;;;;10441834;28;20402;-54
2021/03/17 03:15:38;;;;;;;1.88;0.80;;;5.10;99.90;;;;;;10423197;28;20072;-54
2021/03/17 03:21:01;;;;;;;2.78;0.88;;;5.20;99.90;;;;;;10428245;28;20029;-54
2021/03/17 03:26:22;;;;;;;2.10;1.00;;;5.10;99.90;;;;;;10441749;28;20037;-54
2021/03/17 03:31:44;;;;;;;2.78;0.80;;;5.10;99.90;;;;;;10443788;28;20033;-54
2021/03/17 03:37:06;;;;;;;2.22;1.00;;;5.20;99.90;;;;;;10443870;28;20029;-54
2021/03/17 03:42:27;;;;;;;1.92;1.00;;;5.20;99.90;;;;;;10441723;28;20036;-54
2021/03/17 03:47:48;;;;;;;2.80;1.65;;;5.20;99.90;;;;;;10441797;28;20041;-54
2021/03/17 03:53:38;;;;;;;3.65;1.30;;;5.20;99.90;;;;;;10440869;28;20063;-54
2021/03/17 03:59:07;;;;;;;5.38;1.98;;;5.20;99.90;;;;;;10443268;28;20066;-54
2021/03/17 04:04:31;;;;;;;4.15;1.45;;;5.20;99.90;;;;;;10441388;28;20112;-54
2021/03/17 04:09:53;;;;;;;2.35;0.90;;;5.20;99.90;;;;;;10439761;28;20025;-54
2021/03/17 04:15:16;;;;;;;4.15;1.35;;;5.30;99.90;;;;;;10442098;28;20033;-54
2021/03/17 04:20:42;;;;;;;3.83;0.90;;;5.30;99.90;;;;;;10436992;28;20038;-54
2021/03/17 04:26:05;;;;;;;3.30;1.50;;;5.40;99.90;;;;;;10441788;28;20033;-54
2021/03/17 04:31:27;;;;;;;3.20;0.88;;;5.40;99.90;;;;;;10444006;28;20041;-54
2021/03/17 04:36:49;;;;;;;3.45;1.08;;;5.30;99.90;;;;;;10424445;28;20329;-54
2021/03/17 04:42:12;;;;;;;1.77;0.73;;;5.40;99.90;;;;;;10440978;28;20120;-54
2021/03/17 04:47:33;;;;;;;3.25;1.50;;;5.30;99.90;;;;;;10431725;28;20045;-54
2021/03/17 04:52:55;;;;;;;5.00;1.55;;;5.30;99.90;;;;;;10439792;28;20037;-54
2021/03/17 04:58:20;;;;;;;3.25;0.70;;;5.30;99.90;;;;;;10448818;28;20053;-54
2021/03/17 05:03:42;;;;;;;2.20;0.60;;;5.40;99.90;;;;;;10448888;28;20037;-54
2021/03/17 05:09:04;;;;;;;1.02;0.32;;;5.30;99.90;;;;;;10448751;28;20048;-54
2021/03/17 05:14:25;;;;;;;0.90;0.28;;;5.40;99.90;;;;;;10446863;28;20025;-54
2021/03/17 05:19:47;;;;;;;0.70;0.30;;;5.30;99.90;;;;;;10447433;28;20386;-54
2021/03/17 05:25:10;;;;;;;2.13;0.65;;;5.30;99.90;;;;;;10436541;28;20021;-54
2021/03/17 05:30:37;;;;;;;1.55;0.55;;;5.40;99.90;;;;;;10417673;28;20033;-54
2021/03/17 05:35:58;;;;;;;1.67;0.50;;;5.40;99.90;;;;;;10445116;28;20396;-54
2021/03/17 05:41:20;;;;;;;1.48;0.47;;;5.40;99.90;;;;;;10440036;28;20148;-54
2021/03/17 05:46:43;;;;;;;1.58;0.50;;;5.30;99.90;;;;;;10406694;28;21025;-54
2021/03/17 05:52:07;;;;;;;1.80;0.45;;;5.30;99.90;;;;;;10409390;28;20073;-54
2021/03/17 05:57:30;;;;;;;0.85;0.30;;;5.20;99.90;;;;;;10444125;28;20492;-54
2021/03/17 06:02:51;;;;;;;0.32;0.17;;;5.20;99.90;;;;;;10448034;28;20068;-53
2021/03/17 06:08:14;;;;;;;1.77;0.40;;;5.20;99.90;;;;;;10447041;28;20593;-54
2021/03/17 06:13:40;;;;;;;0.85;0.25;;;5.30;99.90;;;;;;10447449;28;20131;-54
2021/03/17 06:19:03;;;;;;;1.23;0.35;;;5.30;99.90;;;;;;10444721;28;20037;-54
2021/03/17 06:24:26;;;;;;;1.73;0.30;;;5.40;99.90;;;;;;10447503;28;20497;-54
2021/03/17 06:29:47;;;;;;;0.70;0.30;;;5.40;99.90;;;;;;10444013;28;20151;-54
2021/03/17 06:35:24;;;;;;;1.95;0.50;;;5.40;99.90;;;;;;10403933;28;20069;-54
2021/03/17 06:40:58;;;;;;;3.90;0.50;;;5.40;99.90;;;;;;10424422;28;20087;-53
2021/03/17 06:46:20;;;;;;;0.45;0.15;;;5.40;99.90;;;;;;10444693;28;20493;-54
2021/03/17 06:51:41;;;;;;;0.80;0.30;;;5.30;99.90;;;;;;10406588;28;20532;-54
2021/03/17 06:57:24;;;;;;;0.85;0.40;;;5.30;99.90;;;;;;10440174;28;20029;-53
2021/03/17 07:03:01;;;;;;;0.88;0.35;;;5.30;99.90;;;;;;10443016;28;20084;-53
2021/03/17 07:08:30;;;;;;;0.52;0.20;;;5.30;99.90;;;;;;10439226;28;20196;-53
2021/03/17 07:13:56;;;;;;;1.38;0.35;;;5.40;99.90;;;;;;10423583;28;20124;-53
2021/03/17 07:19:39;;;;;;;0.40;0.20;;;5.30;99.90;;;;;;10431305;28;20041;-54
2021/03/17 07:25:05;;;;;;;0.80;0.35;;;5.30;99.90;;;;;;10444995;28;20108;-54
2021/03/17 07:30:26;;;;;;;1.25;0.68;;;5.40;99.90;;;;;;10442938;28;20064;-54
2021/03/17 07:35:47;;;;;;;1.65;0.50;;;5.30;99.90;;;;;;10439552;28;20091;-53
2021/03/17 07:41:08;;;;;;;1.48;0.32;;;5.40;99.90;;;;;;10437982;28;20099;-54
2021/03/17 07:46:30;;;;;;;1.73;0.30;;;5.50;99.90;;;;;;10440196;28;20041;-54
2021/03/17 07:52:02;;;;;;;1.00;0.30;;;5.60;99.90;;;;;;10441256;28;20603;-53
2021/03/17 07:57:28;;;;;;;0.15;0.10;;;5.70;99.90;;;;;;10441368;28;20067;-53
2021/03/17 08:02:51;;;;;;;1.38;0.40;;;5.80;99.90;;;;;;10441842;28;20136;-53
2021/03/17 08:08:13;;;;;;;1.35;0.30;;;5.80;99.90;;;;;;10441195;28;20039;-53
2021/03/17 08:13:35;;;;;;;1.95;0.30;;;5.80;99.90;;;;;;10443075;28;20473;-53
2021/03/17 08:18:56;;;;;;;1.63;1.05;;;5.90;99.90;;;;;;10442955;28;20139;-54
2021/03/17 08:24:38;;;;;;;0.40;0.28;;;5.90;99.90;;;;;;10441232;28;20574;-54
2021/03/17 08:30:07;;;;;;;0.30;0.10;;;5.90;99.90;;;;;;10447753;28;20043;-54
2021/03/17 08:36:05;;;;;;;0.47;0.13;;;5.90;99.90;;;;;;10450098;28;20044;-54
2021/03/17 08:41:46;;;;;;;0.75;0.30;;;5.70;99.90;;;;;;10450811;28;20037;-54
2021/03/17 08:47:30;;;;;;;0.45;0.10;;;5.60;99.90;;;;;;10449520;28;20107;-54
2021/03/17 08:52:53;;;;;;;1.40;0.38;;;5.60;99.90;;;;;;10449557;28;20044;-54
2021/03/17 08:58:32;;;;;;;0.38;0.20;;;5.90;99.90;;;;;;10439646;28;20513;-54
2021/03/17 09:03:54;;;;;;;2.97;1.08;;;6.10;99.90;;;;;;10410503;28;20040;-54
2021/03/17 09:09:18;;;;;;;0.32;0.30;;;6.30;99.90;;;;;;10449342;28;20404;-54
2021/03/17 09:14:39;;;;;;;2.50;0.30;;;6.40;99.90;;;;;;10449342;28;20153;-54
2021/03/17 09:20:11;;;;;;;1.52;0.35;;;6.40;99.90;;;;;;10423449;28;20037;-54
2021/03/17 09:25:47;;;;;;;0.10;0.00;;;6.30;99.90;;;;;;10448598;28;20127;-54
2021/03/17 09:31:11;;;;;;;1.25;0.10;;;6.20;99.90;;;;;;10407590;28;20487;-54
2021/03/17 09:36:32;;;;;;;0.63;0.15;;;6.10;99.90;;;;;;10435864;28;20053;-54
2021/03/17 09:41:53;;;;;;;0.25;0.15;;;6.10;99.90;;;;;;10445145;28;20037;-53
2021/03/17 09:47:14;;;;;;;1.27;0.08;;;6.20;99.90;;;;;;10446289;28;20039;-53
2021/03/17 09:52:35;;;;;;;0.60;0.10;;;6.40;99.90;;;;;;10446946;28;20060;-53
2021/03/17 09:57:58;;;;;;;4.80;1.30;;;6.60;99.90;;;;;;10406256;28;20433;-54
2021/03/17 10:03:19;;;;;;;6.18;0.85;;;6.70;99.90;;;;;;10417167;28;20037;-54
2021/03/17 10:08:41;;;;;;;0.20;0.10;;;6.70;99.90;;;;;;10442414;28;20128;-54
2021/03/17 10:14:10;;;;;;;0.00;0.00;;;6.70;99.90;;;;;;10441005;28;20127;-54
2021/03/17 10:19:32;;;;;;;0.38;0.10;;;6.60;99.90;;;;;;10433693;28;20041;-53
2021/03/17 10:24:56;;;;;;;1.80;0.10;;;6.60;99.90;;;;;;10427691;28;20488;-54
2021/03/17 10:30:18;;;;;;;0.00;0.00;;;6.60;99.90;;;;;;10445444;28;20058;-53
2021/03/17 10:35:40;;;;;;;0.10;0.05;;;6.60;99.90;;;;;;10429798;28;20041;-54
2021/03/17 10:41:02;;;;;;;0.40;0.20;;;6.80;99.90;;;;;;10445115;28;20032;-54
2021/03/17 10:46:23;;;;;;;0.50;0.50;;;6.80;99.90;;;;;;10445871;28;20500;-54
2021/03/17 10:51:56;;;;;;;0.55;0.17;;;6.60;99.90;;;;;;10444985;28;20655;-54
2021/03/17 10:57:23;;;;;;;0.57;0.10;;;6.70;99.90;;;;;;10445691;28;20467;-54
2021/03/17 11:02:44;;;;;;;0.35;0.35;;;6.80;99.90;;;;;;10444164;28;20044;-54
2021/03/17 11:08:06;;;;;;;0.10;0.00;;;7.00;99.90;;;;;;10443215;28;20037;-54
2021/03/17 11:13:29;;;;;;;0.43;0.15;;;7.30;99.90;;;;;;10435756;28;20032;-54
2021/03/17 11:18:52;;;;;;;0.63;0.20;;;7.50;99.90;;;;;;10442593;28;20037;-54
2021/03/17 11:24:18;;;;;;;0.00;0.00;;;7.50;99.90;;;;;;10437042;28;20033;-54
2021/03/17 11:29:51;;;;;;;0.47;0.43;;;7.50;99.90;;;;;;10443515;28;20072;-54
2021/03/17 11:35:13;;;;;;;0.10;0.00;;;7.40;99.90;;;;;;10443967;28;20420;-53
2021/03/17 11:40:35;;;;;;;3.00;0.25;;;7.30;99.90;;;;;;10434192;28;20035;-54
2021/03/17 11:45:58;;;;;;;0.28;0.00;;;7.70;99.90;;;;;;10441433;28;20064;-54
2021/03/17 11:51:20;;;;;;;0.00;0.00;;;8.30;99.90;;;;;;10443996;28;20044;-54
2021/03/17 11:56:42;;;;;;;0.55;0.20;;;8.30;99.90;;;;;;10434636;28;20048;-54
2021/03/17 12:02:03;;;;;;;1.20;0.10;;;8.00;99.90;;;;;;10441506;28;20076;-54
2021/03/17 12:07:24;;;;;;;0.85;0.25;;;8.00;99.90;;;;;;10427096;28;20050;-54
2021/03/17 12:12:45;;;;;;;0.73;0.10;;;8.50;99.90;;;;;;10424048;28;20037;-54
2021/03/17 12:18:06;;;;;;;0.22;0.05;;;8.80;99.90;;;;;;10401309;28;20124;-54
2021/03/17 12:23:27;;;;;;;0.40;0.13;;;8.60;99.90;;;;;;10427062;28;20117;-54
2021/03/17 12:28:48;;;;;;;1.17;0.40;;;8.40;99.90;;;;;;10424959;28;20036;-54
2021/03/17 12:34:09;;;;;;;0.63;0.20;;;8.30;99.90;;;;;;10439194;28;20037;-54
2021/03/17 12:39:31;;;;;;;0.20;0.10;;;8.50;99.90;;;;;;10441569;28;20400;-54
2021/03/17 12:44:52;;;;;;;1.17;0.10;;;8.50;99.90;;;;;;10441677;28;20131;-54
2021/03/17 12:50:15;;;;;;;1.35;0.20;;;8.50;99.90;;;;;;10441382;28;20428;-54
2021/03/17 12:55:35;;;;;;;0.43;0.10;;;8.80;99.90;;;;;;10441363;28;20029;-54
2021/03/17 13:00:58;;;;;;;8.57;0.43;;;8.80;99.90;;;;;;10443104;28;20528;-54
2021/03/17 13:06:19;;;;;;;1.23;0.10;;;8.60;99.90;;;;;;10440596;28;20026;-54
2021/03/17 13:11:40;;;;;;;0.70;0.13;;;8.30;99.90;;;;;;10442863;28;20045;-54
2021/03/17 13:17:01;;;;;;;0.88;0.20;;;8.20;99.90;;;;;;10444923;28;20060;-53
2021/03/17 13:22:22;;;;;;;2.00;0.45;;;8.20;99.90;;;;;;10446072;28;20037;-54
2021/03/17 13:27:46;;;;;;;0.10;0.10;;;8.30;99.90;;;;;;10418777;28;20663;-54
2021/03/17 13:33:07;;;;;;;0.47;0.10;;;8.20;99.90;;;;;;10408070;28;20049;-54
2021/03/17 13:38:28;;;;;;;0.43;0.10;;;8.90;99.90;;;;;;10434883;28;20033;-54
2021/03/17 13:43:49;;;;;;;1.13;0.10;;;9.10;99.90;;;;;;10445656;28;20068;-54
2021/03/17 13:49:10;;;;;;;0.30;0.10;;;9.10;99.90;;;;;;10446516;28;20033;-54
2021/03/17 13:54:31;;;;;;;2.42;0.10;;;9.00;99.90;;;;;;10446841;28;20040;-54
2021/03/17 13:59:52;;;;;;;0.28;0.10;;;8.60;99.90;;;;;;10446636;28;20076;-54
2021/03/17 14:05:15;;;;;;;0.17;0.05;;;8.60;99.90;;;;;;10447575;28;20037;-53
2021/03/17 14:10:37;;;;;;;0.77;0.13;;;8.40;99.90;;;;;;10446551;28;20115;-53
2021/03/17 14:15:59;;;;;;;0.35;0.10;;;8.50;99.90;;;;;;10426599;28;20116;-54
2021/03/17 14:21:20;;;;;;;0.13;0.00;;;8.40;99.90;;;;;;10445490;28;20529;-54
2021/03/17 14:26:41;;;;;;;0.20;0.10;;;8.20;99.90;;;;;;10445607;28;20124;-53
2021/03/17 14:32:02;;;;;;;2.97;0.43;;;8.00;99.90;;;;;;10445194;28;20396;-53
2021/03/17 14:37:23;;;;;;;0.40;0.10;;;8.00;99.90;;;;;;10445927;28;20086;-53
2021/03/17 14:42:44;;;;;;;1.13;0.20;;;8.40;99.90;;;;;;10445568;28;20430;-53
2021/03/17 14:48:07;;;;;;;1.83;0.52;;;8.20;99.90;;;;;;10443839;28;20551;-53
2021/03/17 14:53:28;;;;;;;2.90;0.38;;;8.10;99.90;;;;;;10444463;28;20025;-53
2021/03/17 14:58:49;;;;;;;1.35;0.20;;;8.00;99.90;;;;;;10444517;28;20072;-53
2021/03/17 15:04:10;;;;;;;0.80;0.45;;;7.70;99.90;;;;;;10443734;28;20040;-53
2021/03/17 15:09:31;;;;;;;0.95;0.20;;;7.60;99.90;;;;;;10442688;28;20072;-53
2021/03/17 15:14:52;;;;;;;1.58;0.40;;;7.60;99.90;;;;;;10435558;28;20128;-53
2021/03/17 15:20:23;;;;;;;0.10;0.00;;;7.50;99.90;;;;;;10441600;28;20063;-53
2021/03/17 15:25:44;;;;;;;4.47;0.80;;;7.50;99.90;;;;;;10444237;28;20033;-53
2021/03/17 15:31:05;;;;;;;0.20;0.00;;;7.60;99.90;;;;;;10418893;28;20029;-53
2021/03/17 15:36:26;;;;;;;0.30;0.10;;;7.80;99.90;;;;;;10438980;28;20029;-54
2021/03/17 15:41:47;;;;;;;0.20;0.10;;;7.70;99.90;;;;;;10441953;28;20041;-54
2021/03/17 15:47:08;;;;;;;0.63;0.13;;;7.70;99.90;;;;;;10440421;28;20167;-53
2021/03/17 15:52:29;;;;;;;0.80;0.10;;;7.80;99.90;;;;;;10437664;28;20049;-53
2021/03/17 15:57:50;;;;;;;0.50;0.10;;;7.70;99.90;;;;;;10435520;28;20059;-53
2021/03/17 16:03:11;;;;;;;5.57;0.80;;;7.70;99.90;;;;;;10432220;28;20485;-53
2021/03/17 16:08:33;;;;;;;0.38;0.10;;;7.60;99.90;;;;;;10442298;28;20056;-53
2021/03/17 16:13:55;;;;;;;0.20;0.00;;;7.60;99.90;;;;;;10440473;28;20037;-53
2021/03/17 16:19:16;;;;;;;0.00;0.00;;;7.50;99.90;;;;;;10437358;28;20102;-53
2021/03/17 16:24:37;;;;;;;0.05;0.05;;;7.50;99.90;;;;;;10442467;28;20359;-53
2021/03/17 16:29:58;;;;;;;1.60;0.20;;;7.50;99.90;;;;;;10443223;28;20549;-53
2021/03/17 16:35:19;;;;;;;0.20;0.03;;;7.30;99.90;;;;;;10438648;28;20124;-53
2021/03/17 16:40:40;;;;;;;3.35;1.08;;;7.30;99.90;;;;;;10441808;28;20033;-53
2021/03/17 16:46:01;;;;;;;0.05;0.00;;;7.20;99.90;;;;;;10430012;28;20385;-53
2021/03/17 16:51:22;;;;;;;0.00;0.00;;;7.00;99.90;;;;;;10447478;28;20565;-53
2021/03/17 16:56:43;;;;;;;0.50;0.10;;;6.90;99.90;;;;;;10450452;28;20044;-53
2021/03/17 17:02:04;;;;;;;0.13;0.00;;;6.80;99.90;;;;;;10447469;28;20551;-53
2021/03/17 17:07:25;;;;;;;0.68;0.10;;;6.70;99.90;;;;;;10428600;28;20041;-53
2021/03/17 17:12:46;;;;;;;2.05;0.10;;;6.60;99.90;;;;;;10445905;28;20471;-53
2021/03/17 17:18:08;;;;;;;0.88;0.25;;;6.50;99.90;;;;;;10447175;28;20191;-53
2021/03/17 17:23:29;;;;;;;0.30;0.10;;;6.40;99.90;;;;;;10429820;28;20045;-53
2021/03/17 17:28:51;;;;;;;0.40;0.10;;;6.30;99.90;;;;;;10447406;28;20025;-53
2021/03/17 17:34:12;;;;;;;2.45;0.93;;;6.40;99.90;;;;;;10445710;28;20029;-53
2021/03/17 17:39:33;;;;;;;1.10;0.20;;;6.30;99.90;;;;;;10427913;28;20661;-53
2021/03/17 17:44:55;;;;;;;0.28;0.10;;;6.30;99.90;;;;;;10419416;28;20038;-53
2021/03/17 17:50:16;;;;;;;0.15;0.10;;;6.40;99.90;;;;;;10405550;28;20095;-53
2021/03/17 17:55:38;;;;;;;0.57;0.00;;;6.20;99.90;;;;;;10430855;28;20080;-53
2021/03/17 18:00:59;;;;;;;0.20;0.10;;;6.20;99.90;;;;;;10448063;28;20061;-53
2021/03/17 18:06:20;;;;;;;0.25;0.00;;;6.10;99.90;;;;;;10447626;28;20088;-53
2021/03/17 18:11:41;;;;;;;0.88;0.05;;;6.10;99.90;;;;;;10435278;28;20043;-53
2021/03/17 18:17:02;;;;;;;0.10;0.00;;;6.00;99.90;;;;;;10447654;28;20033;-53
2021/03/17 18:22:23;;;;;;;0.20;0.05;;;6.10;99.90;;;;;;10428813;28;20033;-53
2021/03/17 18:27:48;;;;;;;0.30;0.10;;;6.00;99.90;;;;;;10446896;28;20511;-53
2021/03/17 18:33:09;;;;;;;0.22;0.10;;;6.10;99.90;;;;;;10444096;28;20496;-53
2021/03/17 18:38:31;;;;;;;1.15;0.30;;;6.10;99.90;;;;;;10442851;28;20029;-53
2021/03/17 18:43:52;;;;;;;0.88;0.45;;;6.00;99.90;;;;;;10417621;28;20072;-53
2021/03/17 18:49:13;;;;;;;0.20;0.00;;;6.10;99.90;;;;;;10403390;28;20042;-53
2021/03/17 18:54:34;;;;;;;0.10;0.00;;;6.10;99.90;;;;;;10438751;28;20037;-53
2021/03/17 18:59:56;;;;;;;0.17;0.08;;;6.00;99.90;;;;;;10444598;28;20045;-53
2021/03/17 19:05:19;;;;;;;0.40;0.10;;;5.90;99.90;;;;;;10443682;28;20124;-53
2021/03/17 19:10:42;;;;;;;0.28;0.03;;;6.00;99.90;;;;;;10441190;28;20047;-53
2021/03/17 19:16:04;;;;;;;0.38;0.10;;;6.00;99.90;;;;;;10444321;28;20043;-54
2021/03/17 19:21:25;;;;;;;3.28;0.40;;;6.00;99.90;;;;;;10442753;28;20107;-53
2021/03/17 19:26:46;;;;;;;0.52;0.15;;;5.90;99.90;;;;;;10445110;28;20469;-53
2021/03/17 19:32:09;;;;;;;0.38;0.20;;;6.00;99.90;;;;;;10437289;28;20041;-53
2021/03/17 19:37:30;;;;;;;2.17;0.60;;;5.90;99.90;;;;;;10425103;28;20412;-53
2021/03/17 19:42:51;;;;;;;1.13;0.20;;;6.00;99.90;;;;;;10433271;28;20452;-53
2021/03/17 19:48:12;;;;;;;1.30;1.20;;;5.90;99.90;;;;;;10440152;28;20067;-53
2021/03/17 19:53:34;;;;;;;3.53;0.47;;;5.80;99.90;;;;;;10439707;28;20043;-53
2021/03/17 19:58:57;;;;;;;1.08;0.25;;;5.80;99.90;;;;;;10425474;28;20057;-53
2021/03/17 20:04:18;;;;;;;3.67;0.38;;;5.80;99.90;;;;;;10441551;28;20123;-53
2021/03/17 20:09:39;;;;;;;2.78;0.65;;;5.80;99.90;;;;;;10436607;28;20080;-53
2021/03/17 20:15:00;;;;;;;0.35;0.10;;;5.80;99.90;;;;;;10443447;28;20659;-53
2021/03/17 20:20:24;;;;;;;0.70;0.25;;;5.80;99.90;;;;;;10442903;28;20076;-53
2021/03/17 20:25:46;;;;;;;0.93;0.28;;;5.60;99.90;;;;;;10413039;28;20395;-53
2021/03/17 20:31:07;;;;;;;1.30;0.50;;;5.50;99.90;;;;;;10417656;28;20415;-53
2021/03/17 20:36:28;;;;;;;3.25;0.13;;;5.40;99.90;;;;;;10448871;28;20422;-53
2021/03/17 20:41:50;;;;;;;4.15;0.75;;;5.40;99.90;;;;;;10442285;28;20059;-53
2021/03/17 20:47:11;;;;;;;0.45;0.28;;;5.40;99.90;;;;;;10441189;28;20484;-53
2021/03/17 20:52:32;;;;;;;5.95;0.45;;;5.40;99.90;;;;;;10451123;28;20045;-53
2021/03/17 20:57:54;;;;;;;5.22;0.20;;;5.40;99.90;;;;;;10449700;28;20480;-53
2021/03/17 21:03:15;;;;;;;4.70;0.32;;;5.30;99.90;;;;;;10449902;28;20056;-53
2021/03/17 21:08:36;;;;;;;0.57;0.30;;;5.20;99.90;;;;;;10446540;28;20392;-53
2021/03/17 21:13:58;;;;;;;6.22;1.15;;;5.10;99.90;;;;;;10449077;28;20045;-53
2021/03/17 21:19:22;;;;;;;2.78;0.50;;;5.00;99.90;;;;;;10449377;28;20436;-53
2021/03/17 21:24:43;;;;;;;0.40;0.20;;;5.00;99.90;;;;;;10450388;28;20410;-53
2021/03/17 21:30:06;;;;;;;0.63;0.47;;;4.90;99.90;;;;;;10448798;28;20041;-53
2021/03/17 21:35:28;;;;;;;1.20;0.20;;;4.90;99.90;;;;;;10447609;28;20075;-53
2021/03/17 21:40:54;;;;;;;1.00;0.30;;;4.90;99.90;;;;;;10448600;28;20025;-53
2021/03/17 21:46:15;;;;;;;0.40;0.10;;;4.80;99.90;;;;;;10433024;28;20041;-53
2021/03/17 21:51:36;;;;;;;12.77;0.57;;;4.80;99.90;;;;;;10447803;28;20043;-53
2021/03/17 21:56:58;;;;;;;0.52;0.20;;;4.70;99.90;;;;;;10447879;28;20048;-53
2021/03/17 22:02:18;;;;;;;3.63;0.40;;;4.60;99.90;;;;;;10447326;28;20068;-53
2021/03/17 22:07:40;;;;;;;1.25;0.30;;;4.50;99.90;;;;;;10446276;28;20045;-53
2021/03/17 22:13:01;;;;;;;3.47;0.82;;;4.40;99.90;;;;;;10445887;28;20043;-53
2021/03/17 22:18:23;;;;;;;11.82;0.68;;;4.30;99.90;;;;;;10446074;28;20107;-53
2021/03/17 22:23:44;;;;;;;2.28;0.40;;;4.30;99.90;;;;;;10445271;28;20071;-53
2021/03/17 22:29:05;;;;;;;1.05;0.43;;;4.20;99.90;;;;;;10446549;28;20451;-54
2021/03/17 22:34:26;;;;;;;1.40;0.60;;;4.20;99.90;;;;;;10426789;28;20041;-53
2021/03/17 22:39:47;;;;;;;0.93;0.20;;;4.10;99.90;;;;;;10445804;28;20044;-53
2021/03/17 22:45:09;;;;;;;5.75;2.00;;;3.90;99.90;;;;;;10444290;28;20450;-53
2021/03/17 22:50:41;;;;;;;3.50;0.43;;;3.90;99.90;;;;;;10427493;28;20045;-53
2021/03/17 22:56:03;;;;;;;2.25;0.68;;;3.80;99.90;;;;;;10444173;28;20485;-53
2021/03/17 23:01:24;;;;;;;4.15;0.82;;;3.60;99.90;;;;;;10443602;28;20059;-53
2021/03/17 23:06:45;;;;;;;1.90;0.70;;;3.50;99.90;;;;;;10403306;28;20568;-53
2021/03/17 23:12:07;;;;;;;0.93;0.30;;;3.40;99.90;;;;;;10443085;28;20471;-53
2021/03/17 23:17:27;;;;;;;1.90;1.30;;;3.30;99.90;;;;;;10416183;28;20037;-53
2021/03/17 23:22:48;;;;;;;3.15;0.98;;;3.30;99.90;;;;;;10441666;28;20071;-53
2021/03/17 23:28:10;;;;;;;1.80;1.02;;;3.30;99.90;;;;;;10444273;28;20037;-53
2021/03/17 23:33:31;;;;;;;5.03;0.73;;;3.20;99.90;;;;;;10444530;28;20404;-53
2021/03/17 23:38:52;;;;;;;0.80;0.40;;;3.20;99.90;;;;;;10442560;28;20421;-53
2021/03/17 23:44:13;;;;;;;4.93;0.52;;;3.10;99.90;;;;;;10421049;28;20057;-53
2021/03/17 23:49:34;;;;;;;1.73;0.60;;;3.10;99.90;;;;;;10434070;28;20378;-53
2021/03/17 23:54:55;;;;;;;1.42;0.70;;;3.10;99.90;;;;;;10442840;28;20048;-53
